sensor_id;sensor_type;location;lat;lon;timestamp;pressure;altitude;pressure_sealevel;temperature
41654;BMP280;30790;52.030;7.110;2023-03-03T00:00:26;101661.84;;;20.66
41654;BMP280;30790;52.030;7.110;2023-03-03T00:02:51;101665.84;;;20.63
41654;BMP280;30790;52.030;7.110;2023-03-03T00:05:17;101671.53;;;20.62
41654;BMP280;30790;52.030;7.110;2023-03-03T00:07:45;101680.34;;;20.64
41654;BMP280;30790;52.030;7.110;2023-03-03T00:10:12;101666.31;;;20.60
41654;BMP280;30790;52.030;7.110;2023-03-03T00:12:46;101679.50;;;20.63
41654;BMP280;30790;52.030;7.110;2023-03-03T00:15:20;101676.16;;;20.61
41654;BMP280;30790;52.030;7.110;2023-03-03T00:17:46;101670.56;;;20.56
41654;BMP280;30790;52.030;7.110;2023-03-03T00:22:50;101677.69;;;20.57
41654;BMP280;30790;52.030;7.110;2023-03-03T00:25:31;101676.00;;;20.56
41654;BMP280;30790;52.030;7.110;2023-03-03T00:28:06;101668.69;;;20.50
41654;BMP280;30790;52.030;7.110;2023-03-03T00:30:32;101680.44;;;20.51
41654;BMP280;30790;52.030;7.110;2023-03-03T00:32:58;101680.22;;;20.52
41654;BMP280;30790;52.030;7.110;2023-03-03T00:35:27;101675.59;;;20.53
41654;BMP280;30790;52.030;7.110;2023-03-03T00:38:10;101680.00;;;20.54
41654;BMP280;30790;52.030;7.110;2023-03-03T00:40:38;101679.78;;;20.55
41654;BMP280;30790;52.030;7.110;2023-03-03T00:43:24;101685.84;;;20.57
41654;BMP280;30790;52.030;7.110;2023-03-03T00:45:54;101685.84;;;20.57
41654;BMP280;30790;52.030;7.110;2023-03-03T00:48:29;101679.56;;;20.57
41654;BMP280;30790;52.030;7.110;2023-03-03T00:50:59;101686.91;;;20.56
41654;BMP280;30790;52.030;7.110;2023-03-03T00:53:27;101686.28;;;20.54
41654;BMP280;30790;52.030;7.110;2023-03-03T00:55:53;101682.94;;;20.52
41654;BMP280;30790;52.030;7.110;2023-03-03T00:58:20;101685.44;;;20.54
41654;BMP280;30790;52.030;7.110;2023-03-03T01:00:47;101664.06;;;20.51
41654;BMP280;30790;52.030;7.110;2023-03-03T01:03:16;101672.25;;;20.51
41654;BMP280;30790;52.030;7.110;2023-03-03T01:05:41;101660.34;;;20.45
41654;BMP280;30790;52.030;7.110;2023-03-03T01:08:07;101664.75;;;20.46
41654;BMP280;30790;52.030;7.110;2023-03-03T01:10:39;101670.81;;;20.48
41654;BMP280;30790;52.030;7.110;2023-03-03T01:13:06;101671.88;;;20.47
41654;BMP280;30790;52.030;7.110;2023-03-03T01:15:32;101677.56;;;20.46
41654;BMP280;30790;52.030;7.110;2023-03-03T01:17:57;101666.03;;;20.44
41654;BMP280;30790;52.030;7.110;2023-03-03T01:20:23;101671.72;;;20.42
41654;BMP280;30790;52.030;7.110;2023-03-03T01:22:48;101671.09;;;20.40
41654;BMP280;30790;52.030;7.110;2023-03-03T01:25:13;101665.00;;;20.38
41654;BMP280;30790;52.030;7.110;2023-03-03T01:27:39;101667.09;;;20.43
41654;BMP280;30790;52.030;7.110;2023-03-03T01:30:05;101660.38;;;20.38
41654;BMP280;30790;52.030;7.110;2023-03-03T01:32:31;101667.50;;;20.40
41654;BMP280;30790;52.030;7.110;2023-03-03T01:34:56;101656.22;;;20.36
41654;BMP280;30790;52.030;7.110;2023-03-03T01:37:22;101656.44;;;20.34
41654;BMP280;30790;52.030;7.110;2023-03-03T01:39:51;101669.22;;;20.41
41654;BMP280;30790;52.030;7.110;2023-03-03T01:42:17;101665.19;;;20.43
41654;BMP280;30790;52.030;7.110;2023-03-03T01:44:44;101665.44;;;20.42
41654;BMP280;30790;52.030;7.110;2023-03-03T01:47:16;101666.50;;;20.41
41654;BMP280;30790;52.030;7.110;2023-03-03T01:49:59;101657.47;;;20.40
41654;BMP280;30790;52.030;7.110;2023-03-03T01:52:38;101659.56;;;20.38
41654;BMP280;30790;52.030;7.110;2023-03-03T01:55:29;101670.47;;;20.38
41654;BMP280;30790;52.030;7.110;2023-03-03T01:58:06;101669.84;;;20.36
41654;BMP280;30790;52.030;7.110;2023-03-03T02:00:35;101664.00;;;20.32
41654;BMP280;30790;52.030;7.110;2023-03-03T02:03:02;101674.25;;;20.37
41654;BMP280;30790;52.030;7.110;2023-03-03T02:05:28;101663.41;;;20.30
41654;BMP280;30790;52.030;7.110;2023-03-03T02:07:54;101662.56;;;20.30
41654;BMP280;30790;52.030;7.110;2023-03-03T02:10:20;101660.22;;;20.33
41654;BMP280;30790;52.030;7.110;2023-03-03T02:12:52;101664.00;;;20.32
41654;BMP280;30790;52.030;7.110;2023-03-03T02:17:52;101656.50;;;20.28
41654;BMP280;30790;52.030;7.110;2023-03-03T02:20:26;101663.22;;;20.25
41654;BMP280;30790;52.030;7.110;2023-03-03T02:22:54;101677.50;;;20.27
41654;BMP280;30790;52.030;7.110;2023-03-03T02:25:30;101679.78;;;20.24
41654;BMP280;30790;52.030;7.110;2023-03-03T02:27:57;101663.06;;;20.20
41654;BMP280;30790;52.030;7.110;2023-03-03T02:30:24;101672.22;;;20.26
41654;BMP280;30790;52.030;7.110;2023-03-03T02:32:49;101662.00;;;20.21
41654;BMP280;30790;52.030;7.110;2023-03-03T02:37:58;101669.34;;;20.21
41654;BMP280;30790;52.030;7.110;2023-03-03T02:40:29;101669.78;;;20.18
41654;BMP280;30790;52.030;7.110;2023-03-03T02:42:57;101661.84;;;20.16
41654;BMP280;30790;52.030;7.110;2023-03-03T02:45:23;101664.56;;;20.16
41654;BMP280;30790;52.030;7.110;2023-03-03T02:47:49;101671.91;;;20.16
41654;BMP280;30790;52.030;7.110;2023-03-03T02:50:15;101669.78;;;20.18
41654;BMP280;30790;52.030;7.110;2023-03-03T02:52:40;101665.00;;;20.13
41654;BMP280;30790;52.030;7.110;2023-03-03T02:55:06;101666.44;;;20.16
41654;BMP280;30790;52.030;7.110;2023-03-03T02:57:31;101682.34;;;20.19
41654;BMP280;30790;52.030;7.110;2023-03-03T02:59:57;101679.47;;;20.14
41654;BMP280;30790;52.030;7.110;2023-03-03T03:02:22;101674.47;;;20.11
41654;BMP280;30790;52.030;7.110;2023-03-03T03:04:47;101674.47;;;20.11
41654;BMP280;30790;52.030;7.110;2023-03-03T03:07:13;101671.13;;;20.09
41654;BMP280;30790;52.030;7.110;2023-03-03T03:09:38;101665.66;;;20.09
41654;BMP280;30790;52.030;7.110;2023-03-03T03:12:03;101671.28;;;20.14
41654;BMP280;30790;52.030;7.110;2023-03-03T03:14:29;101666.28;;;20.11
41654;BMP280;30790;52.030;7.110;2023-03-03T03:16:54;101677.41;;;20.09
41654;BMP280;30790;52.030;7.110;2023-03-03T03:19:20;101680.13;;;20.09
41654;BMP280;30790;52.030;7.110;2023-03-03T03:21:45;101667.34;;;20.10
41654;BMP280;30790;52.030;7.110;2023-03-03T03:24:10;101674.69;;;20.09
41654;BMP280;30790;52.030;7.110;2023-03-03T03:26:35;101670.50;;;20.06
41654;BMP280;30790;52.030;7.110;2023-03-03T03:29:01;101670.34;;;20.01
41654;BMP280;30790;52.030;7.110;2023-03-03T03:31:26;101674.06;;;20.07
41654;BMP280;30790;52.030;7.110;2023-03-03T03:33:52;101672.44;;;19.99
41654;BMP280;30790;52.030;7.110;2023-03-03T03:36:17;101686.25;;;20.04
41654;BMP280;30790;52.030;7.110;2023-03-03T03:38:42;101680.81;;;20.04
41654;BMP280;30790;52.030;7.110;2023-03-03T03:41:07;101674.75;;;20.02
41654;BMP280;30790;52.030;7.110;2023-03-03T03:43:33;101677.69;;;20.01
41654;BMP280;30790;52.030;7.110;2023-03-03T03:45:58;101668.88;;;19.99
41654;BMP280;30790;52.030;7.110;2023-03-03T03:48:24;101675.81;;;19.95
41654;BMP280;30790;52.030;7.110;2023-03-03T03:50:50;101664.53;;;19.91
41654;BMP280;30790;52.030;7.110;2023-03-03T03:53:16;101671.19;;;19.95
41654;BMP280;30790;52.030;7.110;2023-03-03T03:55:42;101659.06;;;19.91
41654;BMP280;30790;52.030;7.110;2023-03-03T03:58:14;101675.38;;;19.98
41654;BMP280;30790;52.030;7.110;2023-03-03T04:00:41;101661.59;;;19.93
41654;BMP280;30790;52.030;7.110;2023-03-03T04:03:07;101671.41;;;20.00
41654;BMP280;30790;52.030;7.110;2023-03-03T04:05:33;101665.53;;;19.97
41654;BMP280;30790;52.030;7.110;2023-03-03T04:07:58;101671.41;;;20.00
41654;BMP280;30790;52.030;7.110;2023-03-03T04:10:24;101669.69;;;19.99
41654;BMP280;30790;52.030;7.110;2023-03-03T04:12:49;101679.31;;;20.09
41654;BMP280;30790;52.030;7.110;2023-03-03T04:15:14;101676.97;;;20.12
41654;BMP280;30790;52.030;7.110;2023-03-03T04:17:40;101678.19;;;20.16
41654;BMP280;30790;52.030;7.110;2023-03-03T04:20:06;101670.84;;;20.17
41654;BMP280;30790;52.030;7.110;2023-03-03T04:22:33;101673.56;;;20.17
41654;BMP280;30790;52.030;7.110;2023-03-03T04:25:00;101676.91;;;20.19
41654;BMP280;30790;52.030;7.110;2023-03-03T04:27:29;101667.66;;;20.20
41654;BMP280;30790;52.030;7.110;2023-03-03T04:29:55;101679.19;;;20.22
41654;BMP280;30790;52.030;7.110;2023-03-03T04:32:20;101680.41;;;20.26
41654;BMP280;30790;52.030;7.110;2023-03-03T04:34:45;101684.81;;;20.27
41654;BMP280;30790;52.030;7.110;2023-03-03T04:37:10;101672.69;;;20.23
41654;BMP280;30790;52.030;7.110;2023-03-03T04:39:36;101672.22;;;20.26
41654;BMP280;30790;52.030;7.110;2023-03-03T04:42:02;101673.47;;;20.30
41654;BMP280;30790;52.030;7.110;2023-03-03T04:44:27;101679.09;;;20.35
41654;BMP280;30790;52.030;7.110;2023-03-03T04:46:52;101673.25;;;20.31
41654;BMP280;30790;52.030;7.110;2023-03-03T04:49:17;101678.03;;;20.36
41654;BMP280;30790;52.030;7.110;2023-03-03T04:51:43;101681.81;;;20.35
41654;BMP280;30790;52.030;7.110;2023-03-03T04:54:08;101678.66;;;20.38
41654;BMP280;30790;52.030;7.110;2023-03-03T04:56:33;101679.28;;;20.40
41654;BMP280;30790;52.030;7.110;2023-03-03T04:58:59;101674.84;;;20.39
41654;BMP280;30790;52.030;7.110;2023-03-03T05:01:24;101675.66;;;20.46
41654;BMP280;30790;52.030;7.110;2023-03-03T05:03:49;101679.22;;;20.47
41654;BMP280;30790;52.030;7.110;2023-03-03T05:06:15;101678.53;;;20.51
41654;BMP280;30790;52.030;7.110;2023-03-03T05:08:43;101680.41;;;20.57
41654;BMP280;30790;52.030;7.110;2023-03-03T05:11:08;101679.13;;;20.60
41654;BMP280;30790;52.030;7.110;2023-03-03T05:13:33;101681.16;;;20.64
41654;BMP280;30790;52.030;7.110;2023-03-03T05:15:59;101692.06;;;20.64
41654;BMP280;30790;52.030;7.110;2023-03-03T05:18:25;101694.06;;;20.76
41654;BMP280;30790;52.030;7.110;2023-03-03T05:20:51;101694.06;;;20.76
41654;BMP280;30790;52.030;7.110;2023-03-03T05:23:17;101696.34;;;20.79
41654;BMP280;30790;52.030;7.110;2023-03-03T05:25:44;101700.97;;;20.78
41654;BMP280;30790;52.030;7.110;2023-03-03T05:28:10;101697.16;;;20.79
41654;BMP280;30790;52.030;7.110;2023-03-03T05:30:36;101696.34;;;20.79
41654;BMP280;30790;52.030;7.110;2023-03-03T05:33:02;101689.66;;;20.75
41654;BMP280;30790;52.030;7.110;2023-03-03T05:35:27;101696.56;;;20.77
41654;BMP280;30790;52.030;7.110;2023-03-03T05:37:53;101696.34;;;20.79
41654;BMP280;30790;52.030;7.110;2023-03-03T05:40:19;101690.72;;;20.74
41654;BMP280;30790;52.030;7.110;2023-03-03T05:42:45;101685.88;;;20.76
41654;BMP280;30790;52.030;7.110;2023-03-03T05:45:11;101685.88;;;20.76
41654;BMP280;30790;52.030;7.110;2023-03-03T05:47:36;101699.28;;;20.77
41654;BMP280;30790;52.030;7.110;2023-03-03T05:50:02;101695.28;;;20.80
41654;BMP280;30790;52.030;7.110;2023-03-03T05:52:28;101692.78;;;20.78
41654;BMP280;30790;52.030;7.110;2023-03-03T05:54:53;101705.34;;;20.79
41654;BMP280;30790;52.030;7.110;2023-03-03T05:57:19;101700.13;;;20.78
41654;BMP280;30790;52.030;7.110;2023-03-03T05:59:44;101694.50;;;20.73
41654;BMP280;30790;52.030;7.110;2023-03-03T06:02:09;101707.25;;;20.79
41654;BMP280;30790;52.030;7.110;2023-03-03T06:04:34;101701.19;;;20.77
41654;BMP280;30790;52.030;7.110;2023-03-03T06:07:00;101695.03;;;20.63
41654;BMP280;30790;52.030;7.110;2023-03-03T06:09:25;101710.72;;;20.67
41654;BMP280;30790;52.030;7.110;2023-03-03T06:11:51;101700.88;;;20.66
41654;BMP280;30790;52.030;7.110;2023-03-03T06:14:19;101711.78;;;20.66
41654;BMP280;30790;52.030;7.110;2023-03-03T06:16:46;101716.78;;;20.70
41654;BMP280;30790;52.030;7.110;2023-03-03T06:19:11;101729.38;;;20.71
41654;BMP280;30790;52.030;7.110;2023-03-03T06:21:36;101719.97;;;20.66
41654;BMP280;30790;52.030;7.110;2023-03-03T06:24:02;101717.25;;;20.66
41654;BMP280;30790;52.030;7.110;2023-03-03T06:26:27;101726.88;;;20.69
41654;BMP280;30790;52.030;7.110;2023-03-03T06:28:52;101733.78;;;20.72
41654;BMP280;30790;52.030;7.110;2023-03-03T06:31:19;101734.81;;;20.71
41654;BMP280;30790;52.030;7.110;2023-03-03T06:33:44;101730.09;;;20.84
41654;BMP280;30790;52.030;7.110;2023-03-03T06:36:10;101731.50;;;21.12
41654;BMP280;30790;52.030;7.110;2023-03-03T06:38:36;101743.41;;;21.36
41654;BMP280;30790;52.030;7.110;2023-03-03T06:41:02;101735.16;;;21.42
41654;BMP280;30790;52.030;7.110;2023-03-03T06:43:31;101737.59;;;21.50
41654;BMP280;30790;52.030;7.110;2023-03-03T06:45:57;101739.47;;;21.50
41654;BMP280;30790;52.030;7.110;2023-03-03T06:48:22;101729.75;;;21.54
41654;BMP280;30790;52.030;7.110;2023-03-03T06:50:47;101749.41;;;21.63
41654;BMP280;30790;52.030;7.110;2023-03-03T06:53:14;101748.41;;;21.75
41654;BMP280;30790;52.030;7.110;2023-03-03T06:55:40;101754.25;;;21.79
41654;BMP280;30790;52.030;7.110;2023-03-03T06:58:20;101741.78;;;21.83
41654;BMP280;30790;52.030;7.110;2023-03-03T07:00:58;101754.50;;;21.89
41654;BMP280;30790;52.030;7.110;2023-03-03T07:03:26;101752.38;;;21.91
41654;BMP280;30790;52.030;7.110;2023-03-03T07:05:53;101753.16;;;21.98
41654;BMP280;30790;52.030;7.110;2023-03-03T07:08:21;101761.13;;;22.00
41654;BMP280;30790;52.030;7.110;2023-03-03T07:10:48;101760.66;;;22.03
41654;BMP280;30790;52.030;7.110;2023-03-03T07:13:27;101766.13;;;22.03
41654;BMP280;30790;52.030;7.110;2023-03-03T07:15:56;101768.66;;;22.04
41654;BMP280;30790;52.030;7.110;2023-03-03T07:21:30;101766.81;;;21.98
41654;BMP280;30790;52.030;7.110;2023-03-03T07:23:57;101769.31;;;22.00
41654;BMP280;30790;52.030;7.110;2023-03-03T07:26:26;101780.72;;;21.97
41654;BMP280;30790;52.030;7.110;2023-03-03T07:31:37;101777.38;;;21.95
41654;BMP280;30790;52.030;7.110;2023-03-03T07:36:49;101777.22;;;21.89
41654;BMP280;30790;52.030;7.110;2023-03-03T07:39:46;101788.97;;;21.90
41654;BMP280;30790;52.030;7.110;2023-03-03T07:42:39;101786.94;;;21.85
41654;BMP280;30790;52.030;7.110;2023-03-03T07:45:25;101794.69;;;21.88
41654;BMP280;30790;52.030;7.110;2023-03-03T07:47:51;101793.94;;;21.81
41654;BMP280;30790;52.030;7.110;2023-03-03T07:50:19;101800.38;;;21.87
41654;BMP280;30790;52.030;7.110;2023-03-03T07:52:54;101801.06;;;21.82
41654;BMP280;30790;52.030;7.110;2023-03-03T07:55:26;101807.59;;;21.81
41654;BMP280;30790;52.030;7.110;2023-03-03T07:57:55;101797.59;;;21.75
41654;BMP280;30790;52.030;7.110;2023-03-03T08:02:59;101815.28;;;21.73
41654;BMP280;30790;52.030;7.110;2023-03-03T08:05:37;101819.09;;;21.72
41654;BMP280;30790;52.030;7.110;2023-03-03T08:08:29;101822.06;;;21.70
41654;BMP280;30790;52.030;7.110;2023-03-03T08:10:57;101817.69;;;21.63
41654;BMP280;30790;52.030;7.110;2023-03-03T08:15:51;101824.31;;;21.55
41654;BMP280;30790;52.030;7.110;2023-03-03T08:20:58;101823.72;;;21.53
41654;BMP280;30790;52.030;7.110;2023-03-03T08:23:25;101835.31;;;21.48
41654;BMP280;30790;52.030;7.110;2023-03-03T08:25:51;101842.22;;;21.51
41654;BMP280;30790;52.030;7.110;2023-03-03T08:28:17;101828.66;;;21.44
41654;BMP280;30790;52.030;7.110;2023-03-03T08:30:43;101838.66;;;21.50
41654;BMP280;30790;52.030;7.110;2023-03-03T08:33:09;101826.75;;;21.45
41654;BMP280;30790;52.030;7.110;2023-03-03T08:35:34;101837.69;;;21.45
41654;BMP280;30790;52.030;7.110;2023-03-03T08:38:01;101835.78;;;21.45
41654;BMP280;30790;52.030;7.110;2023-03-03T08:40:26;101831.16;;;21.46
41654;BMP280;30790;52.030;7.110;2023-03-03T08:42:52;101831.59;;;21.43
41654;BMP280;30790;52.030;7.110;2023-03-03T08:45:18;101834.56;;;21.41
41654;BMP280;30790;52.030;7.110;2023-03-03T08:47:43;101820.53;;;21.38
41654;BMP280;30790;52.030;7.110;2023-03-03T08:50:09;101828.25;;;21.41
41654;BMP280;30790;52.030;7.110;2023-03-03T08:52:35;101837.28;;;21.41
41654;BMP280;30790;52.030;7.110;2023-03-03T08:55:00;101823.25;;;21.38
41654;BMP280;30790;52.030;7.110;2023-03-03T08:57:26;101833.72;;;21.41
41654;BMP280;30790;52.030;7.110;2023-03-03T08:59:51;101829.16;;;21.35
41654;BMP280;30790;52.030;7.110;2023-03-03T09:02:16;101832.50;;;21.37
41654;BMP280;30790;52.030;7.110;2023-03-03T09:04:42;101826.25;;;21.29
41654;BMP280;30790;52.030;7.110;2023-03-03T09:07:07;101836.72;;;21.33
41654;BMP280;30790;52.030;7.110;2023-03-03T09:09:33;101825.09;;;21.19
41654;BMP280;30790;52.030;7.110;2023-03-03T09:12:02;101823.31;;;21.31
41654;BMP280;30790;52.030;7.110;2023-03-03T09:14:31;101823.69;;;21.35
41654;BMP280;30790;52.030;7.110;2023-03-03T09:16:56;101832.06;;;21.40
41654;BMP280;30790;52.030;7.110;2023-03-03T09:19:28;101835.78;;;21.45
41654;BMP280;30790;52.030;7.110;2023-03-03T09:21:57;101848.97;;;21.48
41654;BMP280;30790;52.030;7.110;2023-03-03T09:24:30;101838.19;;;21.53
41654;BMP280;30790;52.030;7.110;2023-03-03T09:27:00;101839.50;;;21.51
41654;BMP280;30790;52.030;7.110;2023-03-03T09:29:27;101847.22;;;21.54
41654;BMP280;30790;52.030;7.110;2023-03-03T09:31:57;101842.84;;;21.53
41654;BMP280;30790;52.030;7.110;2023-03-03T09:34:37;101841.63;;;21.49
41654;BMP280;30790;52.030;7.110;2023-03-03T09:37:33;101842.22;;;21.51
41654;BMP280;30790;52.030;7.110;2023-03-03T09:40:15;101842.06;;;21.46
41654;BMP280;30790;52.030;7.110;2023-03-03T09:48:43;101851.56;;;21.43
41654;BMP280;30790;52.030;7.110;2023-03-03T09:54:46;101850.34;;;21.39
41654;BMP280;30790;52.030;7.110;2023-03-03T10:00:10;101851.00;;;21.35
41654;BMP280;30790;52.030;7.110;2023-03-03T10:03:02;101848.34;;;21.28
41654;BMP280;30790;52.030;7.110;2023-03-03T10:05:44;101855.00;;;21.32
41654;BMP280;30790;52.030;7.110;2023-03-03T10:11:09;101864.53;;;21.23
41654;BMP280;30790;52.030;7.110;2023-03-03T10:13:59;101874.19;;;21.25
41654;BMP280;30790;52.030;7.110;2023-03-03T10:16:57;101873.59;;;21.23
41654;BMP280;30790;52.030;7.110;2023-03-03T10:19:34;101879.22;;;21.28
41654;BMP280;30790;52.030;7.110;2023-03-03T10:25:20;101867.72;;;21.45
41654;BMP280;30790;52.030;7.110;2023-03-03T10:36:33;101884.78;;;21.40
41654;BMP280;30790;52.030;7.110;2023-03-03T10:44:47;101882.38;;;21.50
41654;BMP280;30790;52.030;7.110;2023-03-03T10:47:35;101884.28;;;21.50
41654;BMP280;30790;52.030;7.110;2023-03-03T10:55:47;101875.91;;;21.45
41654;BMP280;30790;52.030;7.110;2023-03-03T11:06:25;101875.16;;;21.38
41654;BMP280;30790;52.030;7.110;2023-03-03T11:09:02;101887.97;;;21.37
41654;BMP280;30790;52.030;7.110;2023-03-03T11:12:05;101878.09;;;21.36
41654;BMP280;30790;52.030;7.110;2023-03-03T11:14:47;101869.97;;;21.29
41654;BMP280;30790;52.030;7.110;2023-03-03T11:17:22;101877.78;;;21.26
41654;BMP280;30790;52.030;7.110;2023-03-03T11:20:10;101870.41;;;21.26
41654;BMP280;30790;52.030;7.110;2023-03-03T11:23:09;101876.72;;;21.27
41654;BMP280;30790;52.030;7.110;2023-03-03T11:28:41;101872.53;;;21.24
41654;BMP280;30790;52.030;7.110;2023-03-03T11:31:23;101866.63;;;21.27
41654;BMP280;30790;52.030;7.110;2023-03-03T11:34:00;101858.13;;;21.36
41654;BMP280;30790;52.030;7.110;2023-03-03T11:36:33;101861.44;;;21.44
41654;BMP280;30790;52.030;7.110;2023-03-03T11:39:04;101854.66;;;21.47
41654;BMP280;30790;52.030;7.110;2023-03-03T11:46:57;101858.00;;;21.49
41654;BMP280;30790;52.030;7.110;2023-03-03T11:49:32;101859.69;;;21.50
41654;BMP280;30790;52.030;7.110;2023-03-03T11:52:36;101849.06;;;21.42
41654;BMP280;30790;52.030;7.110;2023-03-03T11:55:08;101857.63;;;21.45
41654;BMP280;30790;52.030;7.110;2023-03-03T11:57:51;101857.03;;;21.43
41654;BMP280;30790;52.030;7.110;2023-03-03T12:00:41;101855.59;;;21.41
41654;BMP280;30790;52.030;7.110;2023-03-03T12:03:15;101850.50;;;21.44
41654;BMP280;30790;52.030;7.110;2023-03-03T12:08:44;101850.97;;;21.41
41654;BMP280;30790;52.030;7.110;2023-03-03T12:11:19;101848.00;;;21.43
41654;BMP280;30790;52.030;7.110;2023-03-03T12:14:11;101839.41;;;21.39
41654;BMP280;30790;52.030;7.110;2023-03-03T12:16:50;101828.72;;;21.38
41654;BMP280;30790;52.030;7.110;2023-03-03T12:27:49;101825.34;;;21.36
41654;BMP280;30790;52.030;7.110;2023-03-03T12:33:01;101830.78;;;21.42
41654;BMP280;30790;52.030;7.110;2023-03-03T12:35:54;101825.09;;;21.44
41654;BMP280;30790;52.030;7.110;2023-03-03T12:41:35;101828.72;;;21.38
41654;BMP280;30790;52.030;7.110;2023-03-03T12:44:13;101818.63;;;21.38
41654;BMP280;30790;52.030;7.110;2023-03-03T12:46:58;101824.03;;;21.45
41654;BMP280;30790;52.030;7.110;2023-03-03T12:57:39;101814.69;;;21.52
41654;BMP280;30790;52.030;7.110;2023-03-03T13:08:18;101799.56;;;21.50
41654;BMP280;30790;52.030;7.110;2023-03-03T13:13:28;101797.38;;;21.58
41654;BMP280;30790;52.030;7.110;2023-03-03T13:16:14;101800.47;;;21.62
41654;BMP280;30790;52.030;7.110;2023-03-03T13:19:03;101798.81;;;21.61
41654;BMP280;30790;52.030;7.110;2023-03-03T13:21:37;101795.00;;;21.62
41654;BMP280;30790;52.030;7.110;2023-03-03T13:26:48;101796.91;;;21.62
41654;BMP280;30790;52.030;7.110;2023-03-03T13:31:54;101791.22;;;21.63
41654;BMP280;30790;52.030;7.110;2023-03-03T13:34:29;101791.22;;;21.63
41654;BMP280;30790;52.030;7.110;2023-03-03T13:37:01;101784.31;;;21.60
41654;BMP280;30790;52.030;7.110;2023-03-03T13:40:02;101793.53;;;21.66
41654;BMP280;30790;52.030;7.110;2023-03-03T13:42:42;101795.56;;;21.71
41654;BMP280;30790;52.030;7.110;2023-03-03T13:48:27;101790.47;;;21.74
41654;BMP280;30790;52.030;7.110;2023-03-03T13:50:52;101780.13;;;21.76
41654;BMP280;30790;52.030;7.110;2023-03-03T13:59:27;101765.19;;;21.79
41654;BMP280;30790;52.030;7.110;2023-03-03T14:04:39;101756.97;;;21.79
41654;BMP280;30790;52.030;7.110;2023-03-03T14:07:21;101762.22;;;21.80
41654;BMP280;30790;52.030;7.110;2023-03-03T14:10:10;101758.41;;;21.81
41654;BMP280;30790;52.030;7.110;2023-03-03T14:15:27;101756.28;;;21.83
41654;BMP280;30790;52.030;7.110;2023-03-03T14:20:54;101747.47;;;21.81
41654;BMP280;30790;52.030;7.110;2023-03-03T14:23:31;101743.06;;;21.80
41654;BMP280;30790;52.030;7.110;2023-03-03T14:26:06;101742.84;;;21.82
41654;BMP280;30790;52.030;7.110;2023-03-03T14:28:47;101729.88;;;21.77
41654;BMP280;30790;52.030;7.110;2023-03-03T14:31:28;101730.34;;;21.74
41654;BMP280;30790;52.030;7.110;2023-03-03T14:34:14;101737.00;;;21.78
41654;BMP280;30790;52.030;7.110;2023-03-03T14:36:51;101727.16;;;21.77
41654;BMP280;30790;52.030;7.110;2023-03-03T14:39:36;101732.59;;;21.77
41654;BMP280;30790;52.030;7.110;2023-03-03T14:42:13;101725.25;;;21.78
41654;BMP280;30790;52.030;7.110;2023-03-03T14:47:11;101723.81;;;21.75
41654;BMP280;30790;52.030;7.110;2023-03-03T14:49:41;101723.44;;;21.72
41654;BMP280;30790;52.030;7.110;2023-03-03T14:54:43;101720.34;;;21.68
41654;BMP280;30790;52.030;7.110;2023-03-03T14:57:40;101718.69;;;21.67
41654;BMP280;30790;52.030;7.110;2023-03-03T15:02:57;101713.66;;;21.64
41654;BMP280;30790;52.030;7.110;2023-03-03T15:10:29;101717.00;;;21.66
41654;BMP280;30790;52.030;7.110;2023-03-03T15:12:54;101712.59;;;21.65
41654;BMP280;30790;52.030;7.110;2023-03-03T15:15:23;101700.44;;;21.61
41654;BMP280;30790;52.030;7.110;2023-03-03T15:20:26;101701.50;;;21.60
41654;BMP280;30790;52.030;7.110;2023-03-03T15:25:55;101695.22;;;21.59
41654;BMP280;30790;52.030;7.110;2023-03-03T15:28:53;101693.31;;;21.60
41654;BMP280;30790;52.030;7.110;2023-03-03T15:42:32;101679.16;;;21.51
41654;BMP280;30790;52.030;7.110;2023-03-03T15:47:55;101673.53;;;21.46
41654;BMP280;30790;52.030;7.110;2023-03-03T15:50:37;101678.53;;;21.49
41654;BMP280;30790;52.030;7.110;2023-03-03T15:53:31;101677.72;;;21.49
41654;BMP280;30790;52.030;7.110;2023-03-03T15:56:32;101677.25;;;21.52
41654;BMP280;30790;52.030;7.110;2023-03-03T16:02:14;101673.25;;;21.36
41654;BMP280;30790;52.030;7.110;2023-03-03T16:10:25;101663.25;;;21.30
41654;BMP280;30790;52.030;7.110;2023-03-03T16:13:15;101669.06;;;21.34
41654;BMP280;30790;52.030;7.110;2023-03-03T16:23:51;101672.72;;;16.87
41654;BMP280;30790;52.030;7.110;2023-03-03T16:31:57;101661.09;;;20.59
41654;BMP280;30790;52.030;7.110;2023-03-03T16:34:44;101672.25;;;20.94
41654;BMP280;30790;52.030;7.110;2023-03-03T16:37:24;101682.50;;;21.17
41654;BMP280;30790;52.030;7.110;2023-03-03T16:43:08;101675.38;;;21.34
41654;BMP280;30790;52.030;7.110;2023-03-03T16:45:38;101681.38;;;21.43
41654;BMP280;30790;52.030;7.110;2023-03-03T16:48:12;101681.75;;;21.46
41654;BMP280;30790;52.030;7.110;2023-03-03T16:56:01;101688.91;;;21.59
41654;BMP280;30790;52.030;7.110;2023-03-03T16:58:51;101685.59;;;21.57
41654;BMP280;30790;52.030;7.110;2023-03-03T17:04:18;101685.06;;;21.67
41654;BMP280;30790;52.030;7.110;2023-03-03T17:06:58;101688.75;;;21.72
41654;BMP280;30790;52.030;7.110;2023-03-03T17:12:24;101688.28;;;21.75
41654;BMP280;30790;52.030;7.110;2023-03-03T17:15:33;101691.63;;;21.77
41654;BMP280;30790;52.030;7.110;2023-03-03T17:20:46;101689.47;;;21.79
41654;BMP280;30790;52.030;7.110;2023-03-03T17:23:16;101693.28;;;21.78
41654;BMP280;30790;52.030;7.110;2023-03-03T17:26:07;101697.22;;;21.82
41654;BMP280;30790;52.030;7.110;2023-03-03T17:32:01;101697.69;;;21.79
41654;BMP280;30790;52.030;7.110;2023-03-03T17:37:47;101691.47;;;21.72
41654;BMP280;30790;52.030;7.110;2023-03-03T17:45:23;101700.41;;;21.79
41654;BMP280;30790;52.030;7.110;2023-03-03T17:53:30;101705.41;;;21.82
41654;BMP280;30790;52.030;7.110;2023-03-03T17:56:17;101708.38;;;21.81
41654;BMP280;30790;52.030;7.110;2023-03-03T18:07:53;101720.38;;;21.80
41654;BMP280;30790;52.030;7.110;2023-03-03T18:15:32;101725.47;;;21.76
41654;BMP280;30790;52.030;7.110;2023-03-03T18:21:20;101719.41;;;21.74
41654;BMP280;30790;52.030;7.110;2023-03-03T18:23:47;101723.81;;;21.75